sensor_id;sensor_type;location;lat;lon;timestamp;temperature;humidity
23550;DHT22;11953;49.010;8.608;2023-04-06T00:00:48;1.30;99.90
23550;DHT22;11953;49.010;8.608;2023-04-06T00:03:35;1.40;99.90
23550;DHT22;11953;49.010;8.608;2023-04-06T00:06:22;1.70;99.90
23550;DHT22;11953;49.010;8.608;2023-04-06T00:09:09;1.90;99.90
23550;DHT22;11953;49.010;8.608;2023-04-06T00:11:57;2.00;99.90
23550;DHT22;11953;49.010;8.608;2023-04-06T00:14:44;2.00;99.90
23550;DHT22;11953;49.010;8.608;2023-04-06T00:17:31;2.00;99.90
23550;DHT22;11953;49.010;8.608;2023-04-06T00:20:18;2.20;99.90
23550;DHT22;11953;49.010;8.608;2023-04-06T00:23:05;2.40;99.90
23550;DHT22;11953;49.010;8.608;2023-04-06T00:25:52;2.40;99.90
23550;DHT22;11953;49.010;8.608;2023-04-06T00:28:40;2.20;99.90
23550;DHT22;11953;49.010;8.608;2023-04-06T00:31:27;2.10;99.90
23550;DHT22;11953;49.010;8.608;2023-04-06T00:34:14;2.20;99.90
23550;DHT22;11953;49.010;8.608;2023-04-06T00:37:01;2.30;99.90
23550;DHT22;11953;49.010;8.608;2023-04-06T00:39:48;2.20;99.90
23550;DHT22;11953;49.010;8.608;2023-04-06T00:42:37;2.20;99.90
23550;DHT22;11953;49.010;8.608;2023-04-06T00:45:25;2.20;99.90
23550;DHT22;11953;49.010;8.608;2023-04-06T00:48:12;2.20;99.90
23550;DHT22;11953;49.010;8.608;2023-04-06T00:50:58;2.20;99.90
23550;DHT22;11953;49.010;8.608;2023-04-06T00:53:45;2.30;99.90
23550;DHT22;11953;49.010;8.608;2023-04-06T00:56:32;2.30;99.90
23550;DHT22;11953;49.010;8.608;2023-04-06T00:59:19;2.20;99.90
23550;DHT22;11953;49.010;8.608;2023-04-06T01:02:08;2.20;99.90
23550;DHT22;11953;49.010;8.608;2023-04-06T01:05:05;2.10;99.90
23550;DHT22;11953;49.010;8.608;2023-04-06T01:08:03;1.70;99.90
23550;DHT22;11953;49.010;8.608;2023-04-06T01:10:50;1.70;99.90
23550;DHT22;11953;49.010;8.608;2023-04-06T01:13:43;1.70;99.90
23550;DHT22;11953;49.010;8.608;2023-04-06T01:16:41;1.60;99.90
23550;DHT22;11953;49.010;8.608;2023-04-06T01:19:36;1.50;99.90
23550;DHT22;11953;49.010;8.608;2023-04-06T01:22:25;1.60;99.90
23550;DHT22;11953;49.010;8.608;2023-04-06T01:25:16;1.60;99.90
23550;DHT22;11953;49.010;8.608;2023-04-06T01:28:20;1.80;99.90
23550;DHT22;11953;49.010;8.608;2023-04-06T01:31:29;1.90;99.90
23550;DHT22;11953;49.010;8.608;2023-04-06T01:34:16;2.00;99.90
23550;DHT22;11953;49.010;8.608;2023-04-06T01:37:04;2.10;99.90
23550;DHT22;11953;49.010;8.608;2023-04-06T01:39:53;2.30;99.90
23550;DHT22;11953;49.010;8.608;2023-04-06T01:42:54;2.20;99.90
23550;DHT22;11953;49.010;8.608;2023-04-06T01:45:49;2.20;99.90
23550;DHT22;11953;49.010;8.608;2023-04-06T01:48:38;2.20;99.90
23550;DHT22;11953;49.010;8.608;2023-04-06T01:51:51;2.10;99.90
23550;DHT22;11953;49.010;8.608;2023-04-06T01:54:39;2.00;99.90
23550;DHT22;11953;49.010;8.608;2023-04-06T01:57:34;1.50;99.90
23550;DHT22;11953;49.010;8.608;2023-04-06T02:00:33;1.20;99.90
23550;DHT22;11953;49.010;8.608;2023-04-06T02:03:20;1.00;99.90
23550;DHT22;11953;49.010;8.608;2023-04-06T02:06:15;0.90;99.90
23550;DHT22;11953;49.010;8.608;2023-04-06T02:09:02;0.70;99.90
23550;DHT22;11953;49.010;8.608;2023-04-06T02:11:49;0.60;99.90
23550;DHT22;11953;49.010;8.608;2023-04-06T02:14:38;0.50;99.90
23550;DHT22;11953;49.010;8.608;2023-04-06T02:17:25;0.50;99.90
23550;DHT22;11953;49.010;8.608;2023-04-06T02:20:12;0.70;99.90
23550;DHT22;11953;49.010;8.608;2023-04-06T02:22:59;0.80;99.90
23550;DHT22;11953;49.010;8.608;2023-04-06T02:25:47;0.90;99.90
23550;DHT22;11953;49.010;8.608;2023-04-06T02:28:33;1.00;99.90
23550;DHT22;11953;49.010;8.608;2023-04-06T02:31:21;1.10;99.90
23550;DHT22;11953;49.010;8.608;2023-04-06T02:34:09;1.10;99.90
23550;DHT22;11953;49.010;8.608;2023-04-06T02:37:06;1.30;99.90
23550;DHT22;11953;49.010;8.608;2023-04-06T02:39:54;1.50;99.90
23550;DHT22;11953;49.010;8.608;2023-04-06T02:42:42;1.50;99.90
23550;DHT22;11953;49.010;8.608;2023-04-06T02:45:29;1.50;99.90
23550;DHT22;11953;49.010;8.608;2023-04-06T02:48:19;1.80;99.90
23550;DHT22;11953;49.010;8.608;2023-04-06T02:51:06;1.70;99.90
23550;DHT22;11953;49.010;8.608;2023-04-06T02:53:54;1.40;99.90
23550;DHT22;11953;49.010;8.608;2023-04-06T02:56:41;1.30;99.90
23550;DHT22;11953;49.010;8.608;2023-04-06T02:59:28;1.30;99.90
23550;DHT22;11953;49.010;8.608;2023-04-06T03:02:29;0.90;99.90
23550;DHT22;11953;49.010;8.608;2023-04-06T03:05:25;0.70;99.90
23550;DHT22;11953;49.010;8.608;2023-04-06T03:08:12;0.60;99.90
23550;DHT22;11953;49.010;8.608;2023-04-06T03:11:03;0.70;99.90
23550;DHT22;11953;49.010;8.608;2023-04-06T03:13:56;0.80;99.90
23550;DHT22;11953;49.010;8.608;2023-04-06T03:16:43;0.80;99.90
23550;DHT22;11953;49.010;8.608;2023-04-06T03:19:34;0.90;99.90
23550;DHT22;11953;49.010;8.608;2023-04-06T03:22:23;1.00;99.90
23550;DHT22;11953;49.010;8.608;2023-04-06T03:25:10;1.10;99.90
23550;DHT22;11953;49.010;8.608;2023-04-06T03:27:59;1.10;99.90
23550;DHT22;11953;49.010;8.608;2023-04-06T03:30:46;1.30;99.90
23550;DHT22;11953;49.010;8.608;2023-04-06T03:33:36;1.20;99.90
23550;DHT22;11953;49.010;8.608;2023-04-06T03:36:25;1.40;99.90
23550;DHT22;11953;49.010;8.608;2023-04-06T03:39:16;1.30;99.90
23550;DHT22;11953;49.010;8.608;2023-04-06T03:42:03;1.30;99.90
23550;DHT22;11953;49.010;8.608;2023-04-06T03:44:56;1.20;99.90
23550;DHT22;11953;49.010;8.608;2023-04-06T03:47:43;1.00;99.90
23550;DHT22;11953;49.010;8.608;2023-04-06T03:50:30;0.90;99.90
23550;DHT22;11953;49.010;8.608;2023-04-06T03:53:18;0.70;99.90
23550;DHT22;11953;49.010;8.608;2023-04-06T03:56:06;0.60;99.90
23550;DHT22;11953;49.010;8.608;2023-04-06T03:58:53;0.60;99.90
23550;DHT22;11953;49.010;8.608;2023-04-06T04:01:40;0.50;99.90
23550;DHT22;11953;49.010;8.608;2023-04-06T04:04:27;0.50;99.90
23550;DHT22;11953;49.010;8.608;2023-04-06T04:07:16;0.50;99.90
23550;DHT22;11953;49.010;8.608;2023-04-06T04:10:03;0.60;99.90
23550;DHT22;11953;49.010;8.608;2023-04-06T04:12:52;0.60;99.90
23550;DHT22;11953;49.010;8.608;2023-04-06T04:15:38;0.70;99.90
23550;DHT22;11953;49.010;8.608;2023-04-06T04:18:25;0.80;99.90
23550;DHT22;11953;49.010;8.608;2023-04-06T04:21:12;0.70;99.90
23550;DHT22;11953;49.010;8.608;2023-04-06T04:24:00;0.80;99.90
23550;DHT22;11953;49.010;8.608;2023-04-06T04:26:47;0.90;99.90
23550;DHT22;11953;49.010;8.608;2023-04-06T04:29:35;1.10;99.90
23550;DHT22;11953;49.010;8.608;2023-04-06T04:32:26;1.10;99.90
23550;DHT22;11953;49.010;8.608;2023-04-06T04:35:16;1.00;99.90
23550;DHT22;11953;49.010;8.608;2023-04-06T04:38:03;1.00;99.90
23550;DHT22;11953;49.010;8.608;2023-04-06T04:40:52;1.10;99.90
23550;DHT22;11953;49.010;8.608;2023-04-06T04:43:40;1.20;99.90
23550;DHT22;11953;49.010;8.608;2023-04-06T04:46:30;1.10;99.90
23550;DHT22;11953;49.010;8.608;2023-04-06T04:49:18;0.90;99.90
23550;DHT22;11953;49.010;8.608;2023-04-06T04:52:07;0.70;99.90
23550;DHT22;11953;49.010;8.608;2023-04-06T04:55:13;0.70;99.90
23550;DHT22;11953;49.010;8.608;2023-04-06T04:58:03;0.70;99.90
23550;DHT22;11953;49.010;8.608;2023-04-06T05:01:08;0.50;99.90
23550;DHT22;11953;49.010;8.608;2023-04-06T05:03:57;0.60;99.90
23550;DHT22;11953;49.010;8.608;2023-04-06T05:06:44;0.60;99.90
23550;DHT22;11953;49.010;8.608;2023-04-06T05:09:31;0.70;99.90
23550;DHT22;11953;49.010;8.608;2023-04-06T05:12:19;0.90;99.90
23550;DHT22;11953;49.010;8.608;2023-04-06T05:15:16;1.00;99.90
23550;DHT22;11953;49.010;8.608;2023-04-06T05:18:07;1.20;99.90
23550;DHT22;11953;49.010;8.608;2023-04-06T05:20:56;1.50;99.90
23550;DHT22;11953;49.010;8.608;2023-04-06T05:23:51;1.80;99.90
23550;DHT22;11953;49.010;8.608;2023-04-06T05:26:38;2.20;99.90
23550;DHT22;11953;49.010;8.608;2023-04-06T05:29:34;2.40;99.90
23550;DHT22;11953;49.010;8.608;2023-04-06T05:32:21;2.70;99.90
23550;DHT22;11953;49.010;8.608;2023-04-06T05:35:11;2.90;99.90
23550;DHT22;11953;49.010;8.608;2023-04-06T05:38:02;3.10;99.90
23550;DHT22;11953;49.010;8.608;2023-04-06T05:40:49;3.30;99.90
23550;DHT22;11953;49.010;8.608;2023-04-06T05:43:41;3.50;99.90
23550;DHT22;11953;49.010;8.608;2023-04-06T05:46:28;3.70;99.90
23550;DHT22;11953;49.010;8.608;2023-04-06T05:49:17;4.00;99.90
23550;DHT22;11953;49.010;8.608;2023-04-06T05:52:03;4.10;99.90
23550;DHT22;11953;49.010;8.608;2023-04-06T05:54:53;4.30;99.90
23550;DHT22;11953;49.010;8.608;2023-04-06T05:57:40;4.10;99.90
23550;DHT22;11953;49.010;8.608;2023-04-06T06:00:27;4.10;99.90
23550;DHT22;11953;49.010;8.608;2023-04-06T06:03:22;4.60;99.90
23550;DHT22;11953;49.010;8.608;2023-04-06T06:06:13;4.80;99.90
23550;DHT22;11953;49.010;8.608;2023-04-06T06:09:15;4.80;99.90
23550;DHT22;11953;49.010;8.608;2023-04-06T06:12:12;5.00;99.90
23550;DHT22;11953;49.010;8.608;2023-04-06T06:14:59;5.10;99.90
23550;DHT22;11953;49.010;8.608;2023-04-06T06:17:48;4.70;99.90
23550;DHT22;11953;49.010;8.608;2023-04-06T06:20:35;4.80;99.90
23550;DHT22;11953;49.010;8.608;2023-04-06T06:23:23;5.10;99.90
23550;DHT22;11953;49.010;8.608;2023-04-06T06:26:11;5.70;99.90
23550;DHT22;11953;49.010;8.608;2023-04-06T06:28:59;5.90;99.90
23550;DHT22;11953;49.010;8.608;2023-04-06T06:31:46;6.10;99.90
23550;DHT22;11953;49.010;8.608;2023-04-06T06:34:34;6.20;99.90
23550;DHT22;11953;49.010;8.608;2023-04-06T06:37:23;6.20;99.90
23550;DHT22;11953;49.010;8.608;2023-04-06T06:40:11;6.40;99.90
23550;DHT22;11953;49.010;8.608;2023-04-06T06:43:00;6.70;99.90
23550;DHT22;11953;49.010;8.608;2023-04-06T06:45:55;6.80;99.90
23550;DHT22;11953;49.010;8.608;2023-04-06T06:48:42;7.10;99.90
23550;DHT22;11953;49.010;8.608;2023-04-06T06:51:29;7.10;99.90
23550;DHT22;11953;49.010;8.608;2023-04-06T06:54:16;7.90;99.90
23550;DHT22;11953;49.010;8.608;2023-04-06T06:57:03;7.80;99.90
23550;DHT22;11953;49.010;8.608;2023-04-06T06:59:50;8.30;99.90
23550;DHT22;11953;49.010;8.608;2023-04-06T07:02:40;8.80;99.90
23550;DHT22;11953;49.010;8.608;2023-04-06T07:05:28;9.30;99.50
23550;DHT22;11953;49.010;8.608;2023-04-06T07:08:16;9.00;99.00
23550;DHT22;11953;49.010;8.608;2023-04-06T07:11:03;8.80;98.40
23550;DHT22;11953;49.010;8.608;2023-04-06T07:13:50;8.40;98.80
23550;DHT22;11953;49.010;8.608;2023-04-06T07:16:37;8.80;99.30
23550;DHT22;11953;49.010;8.608;2023-04-06T07:19:26;8.90;98.30
23550;DHT22;11953;49.010;8.608;2023-04-06T07:22:13;9.10;98.50
23550;DHT22;11953;49.010;8.608;2023-04-06T07:25:00;9.90;97.70
23550;DHT22;11953;49.010;8.608;2023-04-06T07:27:47;10.40;96.10
23550;DHT22;11953;49.010;8.608;2023-04-06T07:30:36;11.10;96.30
23550;DHT22;11953;49.010;8.608;2023-04-06T07:33:25;11.70;95.10
23550;DHT22;11953;49.010;8.608;2023-04-06T07:36:17;12.60;94.00
23550;DHT22;11953;49.010;8.608;2023-04-06T07:39:04;13.50;92.10
23550;DHT22;11953;49.010;8.608;2023-04-06T07:41:54;13.80;89.50
23550;DHT22;11953;49.010;8.608;2023-04-06T07:44:40;13.40;88.60
23550;DHT22;11953;49.010;8.608;2023-04-06T07:47:29;13.40;88.20
23550;DHT22;11953;49.010;8.608;2023-04-06T07:50:16;14.20;87.20
23550;DHT22;11953;49.010;8.608;2023-04-06T07:53:05;14.50;85.80
23550;DHT22;11953;49.010;8.608;2023-04-06T07:55:53;14.50;82.30
23550;DHT22;11953;49.010;8.608;2023-04-06T07:58:41;14.70;82.30
23550;DHT22;11953;49.010;8.608;2023-04-06T08:01:28;15.10;80.10
23550;DHT22;11953;49.010;8.608;2023-04-06T08:04:15;15.00;78.50
23550;DHT22;11953;49.010;8.608;2023-04-06T08:07:02;15.60;76.70
23550;DHT22;11953;49.010;8.608;2023-04-06T08:09:51;15.80;74.70
23550;DHT22;11953;49.010;8.608;2023-04-06T08:12:38;16.00;73.00
23550;DHT22;11953;49.010;8.608;2023-04-06T08:15:25;16.30;71.20
23550;DHT22;11953;49.010;8.608;2023-04-06T08:18:12;16.80;71.10
23550;DHT22;11953;49.010;8.608;2023-04-06T08:20:59;17.10;69.20
23550;DHT22;11953;49.010;8.608;2023-04-06T08:23:46;17.40;66.00
23550;DHT22;11953;49.010;8.608;2023-04-06T08:26:34;17.60;65.00
23550;DHT22;11953;49.010;8.608;2023-04-06T08:29:21;17.10;66.00
23550;DHT22;11953;49.010;8.608;2023-04-06T08:32:08;17.30;65.30
23550;DHT22;11953;49.010;8.608;2023-04-06T08:34:55;17.60;64.70
23550;DHT22;11953;49.010;8.608;2023-04-06T08:37:42;18.10;65.50
23550;DHT22;11953;49.010;8.608;2023-04-06T08:40:28;18.30;64.20
23550;DHT22;11953;49.010;8.608;2023-04-06T08:43:20;18.30;63.10
23550;DHT22;11953;49.010;8.608;2023-04-06T08:46:08;18.60;61.20
23550;DHT22;11953;49.010;8.608;2023-04-06T08:48:57;18.90;59.60
23550;DHT22;11953;49.010;8.608;2023-04-06T08:51:44;18.60;59.40
23550;DHT22;11953;49.010;8.608;2023-04-06T08:54:31;18.80;58.70
23550;DHT22;11953;49.010;8.608;2023-04-06T08:57:19;18.90;58.30
23550;DHT22;11953;49.010;8.608;2023-04-06T09:00:10;18.90;57.60
23550;DHT22;11953;49.010;8.608;2023-04-06T09:02:57;19.20;56.20
23550;DHT22;11953;49.010;8.608;2023-04-06T09:05:47;19.30;56.50
23550;DHT22;11953;49.010;8.608;2023-04-06T09:08:34;19.60;55.20
23550;DHT22;11953;49.010;8.608;2023-04-06T09:11:21;19.40;54.70
23550;DHT22;11953;49.010;8.608;2023-04-06T09:14:08;19.60;54.40
23550;DHT22;11953;49.010;8.608;2023-04-06T09:16:56;19.70;53.90
23550;DHT22;11953;49.010;8.608;2023-04-06T09:19:46;19.70;54.20
23550;DHT22;11953;49.010;8.608;2023-04-06T09:22:36;20.20;52.40
23550;DHT22;11953;49.010;8.608;2023-04-06T09:25:24;20.30;54.20
23550;DHT22;11953;49.010;8.608;2023-04-06T09:28:12;19.50;53.90
23550;DHT22;11953;49.010;8.608;2023-04-06T09:30:59;19.50;54.40
23550;DHT22;11953;49.010;8.608;2023-04-06T09:33:47;19.70;54.00
23550;DHT22;11953;49.010;8.608;2023-04-06T09:36:35;19.50;52.70
23550;DHT22;11953;49.010;8.608;2023-04-06T09:39:24;19.40;52.10
23550;DHT22;11953;49.010;8.608;2023-04-06T09:42:12;18.40;52.30
23550;DHT22;11953;49.010;8.608;2023-04-06T09:45:09;19.00;51.90
23550;DHT22;11953;49.010;8.608;2023-04-06T09:47:57;19.40;51.00
23550;DHT22;11953;49.010;8.608;2023-04-06T09:50:46;19.70;50.90
23550;DHT22;11953;49.010;8.608;2023-04-06T09:53:36;19.70;51.40
23550;DHT22;11953;49.010;8.608;2023-04-06T09:56:28;19.80;50.00
23550;DHT22;11953;49.010;8.608;2023-04-06T09:59:21;19.20;50.70
23550;DHT22;11953;49.010;8.608;2023-04-06T10:02:15;19.50;51.60
23550;DHT22;11953;49.010;8.608;2023-04-06T10:05:09;19.50;51.00
23550;DHT22;11953;49.010;8.608;2023-04-06T10:08:00;19.90;50.60
23550;DHT22;11953;49.010;8.608;2023-04-06T10:10:50;20.00;51.70
23550;DHT22;11953;49.010;8.608;2023-04-06T10:13:38;19.80;51.20
23550;DHT22;11953;49.010;8.608;2023-04-06T10:16:25;19.60;51.70
23550;DHT22;11953;49.010;8.608;2023-04-06T10:19:16;19.40;52.40
23550;DHT22;11953;49.010;8.608;2023-04-06T10:22:05;19.30;51.20
23550;DHT22;11953;49.010;8.608;2023-04-06T10:24:54;19.40;51.30
23550;DHT22;11953;49.010;8.608;2023-04-06T10:27:41;19.40;51.30
23550;DHT22;11953;49.010;8.608;2023-04-06T10:30:28;19.40;51.30
23550;DHT22;11953;49.010;8.608;2023-04-06T10:33:16;19.40;51.10
23550;DHT22;11953;49.010;8.608;2023-04-06T10:36:11;19.40;49.50
23550;DHT22;11953;49.010;8.608;2023-04-06T10:38:59;19.60;50.20
23550;DHT22;11953;49.010;8.608;2023-04-06T10:41:48;19.40;50.40
23550;DHT22;11953;49.010;8.608;2023-04-06T10:44:42;19.50;50.10
23550;DHT22;11953;49.010;8.608;2023-04-06T10:47:39;19.40;49.80
23550;DHT22;11953;49.010;8.608;2023-04-06T10:50:28;19.60;50.30
23550;DHT22;11953;49.010;8.608;2023-04-06T10:53:21;19.70;49.00
23550;DHT22;11953;49.010;8.608;2023-04-06T10:56:10;19.60;51.40
23550;DHT22;11953;49.010;8.608;2023-04-06T10:58:59;19.10;52.20
23550;DHT22;11953;49.010;8.608;2023-04-06T11:01:46;18.90;51.70
23550;DHT22;11953;49.010;8.608;2023-04-06T11:04:33;18.90;51.90
23550;DHT22;11953;49.010;8.608;2023-04-06T11:07:23;19.00;51.80
23550;DHT22;11953;49.010;8.608;2023-04-06T11:10:10;19.10;52.10
23550;DHT22;11953;49.010;8.608;2023-04-06T11:13:03;19.10;51.80
23550;DHT22;11953;49.010;8.608;2023-04-06T11:15:52;19.10;51.60
23550;DHT22;11953;49.010;8.608;2023-04-06T11:18:49;18.90;52.30
23550;DHT22;11953;49.010;8.608;2023-04-06T11:21:37;18.90;52.00
23550;DHT22;11953;49.010;8.608;2023-04-06T11:24:25;19.00;52.10
23550;DHT22;11953;49.010;8.608;2023-04-06T11:27:12;18.70;50.70
23550;DHT22;11953;49.010;8.608;2023-04-06T11:30:00;18.50;50.80
23550;DHT22;11953;49.010;8.608;2023-04-06T11:32:49;18.80;51.90
23550;DHT22;11953;49.010;8.608;2023-04-06T11:35:37;18.80;50.80
23550;DHT22;11953;49.010;8.608;2023-04-06T11:38:24;18.40;52.30
23550;DHT22;11953;49.010;8.608;2023-04-06T11:41:11;18.60;51.50
23550;DHT22;11953;49.010;8.608;2023-04-06T11:44:00;18.60;51.80
23550;DHT22;11953;49.010;8.608;2023-04-06T11:46:52;18.60;52.40
23550;DHT22;11953;49.010;8.608;2023-04-06T11:49:41;18.70;52.00
23550;DHT22;11953;49.010;8.608;2023-04-06T11:52:28;18.70;52.40
23550;DHT22;11953;49.010;8.608;2023-04-06T11:55:17;18.90;52.20
23550;DHT22;11953;49.010;8.608;2023-04-06T11:58:04;18.70;51.80
23550;DHT22;11953;49.010;8.608;2023-04-06T12:00:51;17.50;50.50
23550;DHT22;11953;49.010;8.608;2023-04-06T12:03:38;17.10;51.40
23550;DHT22;11953;49.010;8.608;2023-04-06T12:06:26;17.00;52.10
23550;DHT22;11953;49.010;8.608;2023-04-06T12:09:13;16.90;52.30
23550;DHT22;11953;49.010;8.608;2023-04-06T12:12:00;17.00;52.80
23550;DHT22;11953;49.010;8.608;2023-04-06T12:14:47;17.10;52.20
23550;DHT22;11953;49.010;8.608;2023-04-06T12:17:33;17.40;53.30
23550;DHT22;11953;49.010;8.608;2023-04-06T12:20:21;17.40;51.80
23550;DHT22;11953;49.010;8.608;2023-04-06T12:23:16;17.40;52.50
23550;DHT22;11953;49.010;8.608;2023-04-06T12:26:03;16.90;51.40
23550;DHT22;11953;49.010;8.608;2023-04-06T12:28:58;16.90;51.60
23550;DHT22;11953;49.010;8.608;2023-04-06T12:31:50;16.90;52.10
23550;DHT22;11953;49.010;8.608;2023-04-06T12:34:38;16.80;52.80
23550;DHT22;11953;49.010;8.608;2023-04-06T12:37:26;16.50;51.60
23550;DHT22;11953;49.010;8.608;2023-04-06T12:40:15;16.20;52.50
23550;DHT22;11953;49.010;8.608;2023-04-06T12:43:01;16.00;52.60
23550;DHT22;11953;49.010;8.608;2023-04-06T12:45:48;16.20;52.80
23550;DHT22;11953;49.010;8.608;2023-04-06T12:48:35;16.40;52.50
23550;DHT22;11953;49.010;8.608;2023-04-06T12:51:22;16.50;52.50
23550;DHT22;11953;49.010;8.608;2023-04-06T12:54:09;16.10;52.60
23550;DHT22;11953;49.010;8.608;2023-04-06T12:56:57;16.40;53.50
23550;DHT22;11953;49.010;8.608;2023-04-06T12:59:44;16.40;52.60
23550;DHT22;11953;49.010;8.608;2023-04-06T13:02:31;16.70;52.20
23550;DHT22;11953;49.010;8.608;2023-04-06T13:05:18;16.80;51.40
23550;DHT22;11953;49.010;8.608;2023-04-06T13:08:05;17.10;52.60
23550;DHT22;11953;49.010;8.608;2023-04-06T13:10:52;17.20;52.00
23550;DHT22;11953;49.010;8.608;2023-04-06T13:13:40;17.20;51.70
23550;DHT22;11953;49.010;8.608;2023-04-06T13:16:28;17.10;52.00
23550;DHT22;11953;49.010;8.608;2023-04-06T13:19:15;16.80;51.90
23550;DHT22;11953;49.010;8.608;2023-04-06T13:22:02;16.60;52.10
23550;DHT22;11953;49.010;8.608;2023-04-06T13:24:49;16.70;52.10
23550;DHT22;11953;49.010;8.608;2023-04-06T13:27:36;16.60;51.60
23550;DHT22;11953;49.010;8.608;2023-04-06T13:30:25;16.30;52.30
23550;DHT22;11953;49.010;8.608;2023-04-06T13:33:12;16.20;52.60
23550;DHT22;11953;49.010;8.608;2023-04-06T13:35:59;16.10;52.50
23550;DHT22;11953;49.010;8.608;2023-04-06T13:38:46;16.00;52.50
23550;DHT22;11953;49.010;8.608;2023-04-06T13:41:33;15.70;52.80
23550;DHT22;11953;49.010;8.608;2023-04-06T13:44:20;15.70;52.70
23550;DHT22;11953;49.010;8.608;2023-04-06T13:47:08;15.70;52.60
23550;DHT22;11953;49.010;8.608;2023-04-06T13:49:56;15.70;53.00
23550;DHT22;11953;49.010;8.608;2023-04-06T13:52:42;15.60;52.60
23550;DHT22;11953;49.010;8.608;2023-04-06T13:55:29;15.50;53.20
23550;DHT22;11953;49.010;8.608;2023-04-06T13:58:16;15.50;53.20
23550;DHT22;11953;49.010;8.608;2023-04-06T14:01:04;15.70;53.60
23550;DHT22;11953;49.010;8.608;2023-04-06T14:03:53;15.50;53.70
23550;DHT22;11953;49.010;8.608;2023-04-06T14:06:40;15.50;53.30
23550;DHT22;11953;49.010;8.608;2023-04-06T14:09:26;15.40;54.00
23550;DHT22;11953;49.010;8.608;2023-04-06T14:12:13;15.40;54.00
23550;DHT22;11953;49.010;8.608;2023-04-06T14:15:00;15.40;52.90
23550;DHT22;11953;49.010;8.608;2023-04-06T14:17:47;15.30;51.60
23550;DHT22;11953;49.010;8.608;2023-04-06T14:20:35;15.20;50.40
23550;DHT22;11953;49.010;8.608;2023-04-06T14:23:22;15.20;51.10
23550;DHT22;11953;49.010;8.608;2023-04-06T14:26:11;15.30;51.00
23550;DHT22;11953;49.010;8.608;2023-04-06T14:28:58;15.30;50.70
23550;DHT22;11953;49.010;8.608;2023-04-06T14:31:46;15.50;50.60
23550;DHT22;11953;49.010;8.608;2023-04-06T14:34:33;15.50;50.30
23550;DHT22;11953;49.010;8.608;2023-04-06T14:37:21;15.40;50.10
23550;DHT22;11953;49.010;8.608;2023-04-06T14:40:08;15.30;49.70
23550;DHT22;11953;49.010;8.608;2023-04-06T14:42:54;15.20;49.30
23550;DHT22;11953;49.010;8.608;2023-04-06T14:45:41;15.20;49.50
23550;DHT22;11953;49.010;8.608;2023-04-06T14:48:28;15.20;49.70
23550;DHT22;11953;49.010;8.608;2023-04-06T14:51:15;15.20;50.20
23550;DHT22;11953;49.010;8.608;2023-04-06T14:54:03;15.30;49.30
23550;DHT22;11953;49.010;8.608;2023-04-06T14:56:50;15.20;48.80
23550;DHT22;11953;49.010;8.608;2023-04-06T14:59:37;15.10;49.20
23550;DHT22;11953;49.010;8.608;2023-04-06T15:02:24;15.10;49.90
23550;DHT22;11953;49.010;8.608;2023-04-06T15:05:11;15.20;49.80
23550;DHT22;11953;49.010;8.608;2023-04-06T15:07:58;15.10;50.10
23550;DHT22;11953;49.010;8.608;2023-04-06T15:10:46;15.00;50.40
23550;DHT22;11953;49.010;8.608;2023-04-06T15:13:33;14.90;50.40
23550;DHT22;11953;49.010;8.608;2023-04-06T15:16:19;14.60;49.70
23550;DHT22;11953;49.010;8.608;2023-04-06T15:19:06;14.60;49.90
23550;DHT22;11953;49.010;8.608;2023-04-06T15:21:54;14.50;50.80
23550;DHT22;11953;49.010;8.608;2023-04-06T15:24:40;14.60;51.40
23550;DHT22;11953;49.010;8.608;2023-04-06T15:27:28;14.70;51.10
23550;DHT22;11953;49.010;8.608;2023-04-06T15:30:16;14.70;51.40
23550;DHT22;11953;49.010;8.608;2023-04-06T15:33:04;14.70;51.80
23550;DHT22;11953;49.010;8.608;2023-04-06T15:35:53;14.80;52.40
23550;DHT22;11953;49.010;8.608;2023-04-06T15:38:40;14.70;52.60
23550;DHT22;11953;49.010;8.608;2023-04-06T15:41:26;14.60;52.40
23550;DHT22;11953;49.010;8.608;2023-04-06T15:44:15;14.60;52.50
23550;DHT22;11953;49.010;8.608;2023-04-06T15:47:02;14.60;52.50
23550;DHT22;11953;49.010;8.608;2023-04-06T15:49:49;14.50;52.60
23550;DHT22;11953;49.010;8.608;2023-04-06T15:52:36;14.50;53.00
23550;DHT22;11953;49.010;8.608;2023-04-06T15:55:23;14.50;53.30
23550;DHT22;11953;49.010;8.608;2023-04-06T15:58:10;14.30;53.30
23550;DHT22;11953;49.010;8.608;2023-04-06T16:00:58;14.30;52.80
23550;DHT22;11953;49.010;8.608;2023-04-06T16:03:45;14.30;53.90
23550;DHT22;11953;49.010;8.608;2023-04-06T16:06:32;14.30;53.70
23550;DHT22;11953;49.010;8.608;2023-04-06T16:09:19;14.20;54.00
23550;DHT22;11953;49.010;8.608;2023-04-06T16:12:06;14.20;54.20
23550;DHT22;11953;49.010;8.608;2023-04-06T16:14:53;14.00;54.10
23550;DHT22;11953;49.010;8.608;2023-04-06T16:17:42;13.90;54.60
23550;DHT22;11953;49.010;8.608;2023-04-06T16:20:29;13.80;54.30
23550;DHT22;11953;49.010;8.608;2023-04-06T16:23:16;13.80;54.80
23550;DHT22;11953;49.010;8.608;2023-04-06T16:26:10;13.90;55.40
23550;DHT22;11953;49.010;8.608;2023-04-06T16:28:57;13.90;55.20
23550;DHT22;11953;49.010;8.608;2023-04-06T16:31:45;13.90;55.10
23550;DHT22;11953;49.010;8.608;2023-04-06T16:34:34;13.90;54.80
23550;DHT22;11953;49.010;8.608;2023-04-06T16:37:20;13.90;55.50
23550;DHT22;11953;49.010;8.608;2023-04-06T16:40:08;13.80;56.20
23550;DHT22;11953;49.010;8.608;2023-04-06T16:42:55;13.80;56.90
23550;DHT22;11953;49.010;8.608;2023-04-06T16:45:41;13.80;56.50
23550;DHT22;11953;49.010;8.608;2023-04-06T16:48:35;13.70;56.40
23550;DHT22;11953;49.010;8.608;2023-04-06T16:51:23;13.70;56.70
23550;DHT22;11953;49.010;8.608;2023-04-06T16:54:11;13.70;56.50
23550;DHT22;11953;49.010;8.608;2023-04-06T16:56:57;13.80;57.00
23550;DHT22;11953;49.010;8.608;2023-04-06T16:59:44;13.70;57.30
23550;DHT22;11953;49.010;8.608;2023-04-06T17:02:31;13.80;57.80
23550;DHT22;11953;49.010;8.608;2023-04-06T17:05:20;13.80;57.70
23550;DHT22;11953;49.010;8.608;2023-04-06T17:08:12;13.70;57.70
23550;DHT22;11953;49.010;8.608;2023-04-06T17:10:59;13.70;58.90
23550;DHT22;11953;49.010;8.608;2023-04-06T17:13:49;13.40;57.90
23550;DHT22;11953;49.010;8.608;2023-04-06T17:16:36;13.20;58.60
23550;DHT22;11953;49.010;8.608;2023-04-06T17:19:23;13.10;59.40
23550;DHT22;11953;49.010;8.608;2023-04-06T17:22:10;13.00;59.50
23550;DHT22;11953;49.010;8.608;2023-04-06T17:24:58;13.00;59.60
23550;DHT22;11953;49.010;8.608;2023-04-06T17:27:46;13.10;59.90
23550;DHT22;11953;49.010;8.608;2023-04-06T17:30:33;13.00;59.90
23550;DHT22;11953;49.010;8.608;2023-04-06T17:33:20;12.90;60.10
23550;DHT22;11953;49.010;8.608;2023-04-06T17:36:08;12.90;60.40
23550;DHT22;11953;49.010;8.608;2023-04-06T17:38:56;12.90;60.80
23550;DHT22;11953;49.010;8.608;2023-04-06T17:41:44;12.80;61.10
23550;DHT22;11953;49.010;8.608;2023-04-06T17:44:32;12.80;61.40
23550;DHT22;11953;49.010;8.608;2023-04-06T17:47:18;12.70;61.40
23550;DHT22;11953;49.010;8.608;2023-04-06T17:50:06;12.60;61.20
23550;DHT22;11953;49.010;8.608;2023-04-06T17:52:52;12.60;61.90